Have a Safe July 4th! 

Flight Track Log - Related Links

Times and Time Zones

All times are in EDT time to prevent confusion due to time zone crossing. See the SWA1960 flight status page for this flight to view local times or setup timezone preferences in your user account.

Time Position Orientation Groundspeed Altitude Reporting Facility
EDT Latitude Longitude Course Direction KTS MPH feet Rate Location/Type
Wed 12:14:18 PM 42.9500 -71.4333 332° Northwest 154 177 1,400  Level KA90
Wed 12:15:28 PM 43.0028 -71.4719 332° Northwest 223 257 4,400 2,954 Climbing Boston Center
Wed 12:16:28 PM 43.0522 -71.4228 36° Northeast 205 236 7,800 2,850 Climbing Boston Center
Wed 12:17:28 PM 43.0661 -71.3317 78° East 220 253 10,100 1,455 Climbing Boston Center
Wed 12:18:40 PM 43.0628 -71.2067 92° East 284 327 11,000 2,409 Climbing Boston Center
Wed 12:19:40 PM 43.0714 -71.0475 86° East 343 395 15,400 3,800 Climbing Boston Center
Wed 12:20:40 PM 43.0281 -70.9206 115° Southeast 377 434 18,600 3,150 Climbing Boston Center
Wed 12:21:40 PM 42.9217 -70.9147 178° South 314 361 21,700 2,750 Climbing Boston Center
Wed 12:22:40 PM 42.8139 -70.9656 199° South 346 398 24,100 2,550 Climbing Boston Center
Wed 12:23:40 PM 42.7000 -71.0219 200° South 395 455 26,800 2,950 Climbing Boston Center
Wed 12:24:40 PM 42.5861 -71.0753 199° South 418 481 30,000 2,650 Climbing Boston Center
Wed 12:25:40 PM 42.4742 -71.1339 201° Southwest 437 503 32,100 1,700 Climbing Boston Center
Wed 12:26:40 PM 42.3919 -71.2481 226° Southwest 423 487 33,400 950 Climbing Boston Center
Wed 12:27:40 PM 42.3497 -71.3950 249° West 412 474 34,000 300 Climbing Boston Center
Wed 12:28:40 PM 42.3050 -71.5389 247° West 412 474 34,000  Level Boston Center
Wed 12:29:40 PM 42.2561 -71.6828 245° Southwest 417 480 34,000  Level Boston Center
Wed 12:30:40 PM 42.2133 -71.8261 248° West 423 487 34,000  Level Boston Center
Wed 12:31:40 PM 42.1681 -71.9694 247° West 418 481 34,000  Level Boston Center
Wed 12:32:40 PM 42.1228 -72.1125 247° West 418 481 34,000  Level Boston Center
Wed 12:33:40 PM 42.0792 -72.2556 248° West 418 481 34,000  Level Boston Center
Wed 12:34:40 PM 42.0336 -72.3953 246° West 418 481 34,000  Level Boston Center
Wed 12:35:40 PM 41.9878 -72.5378 247° West 418 481 34,000  Level Boston Center
Wed 12:36:40 PM 41.9436 -72.6717 246° West 411 473 34,000  Level Boston Center
Wed 12:37:40 PM 41.8683 -72.7886 229° Southwest 400 460 34,000  Level Boston Center
Wed 12:38:40 PM 41.7847 -72.9022 225° Southwest 414 476 34,000  Level Boston Center
Wed 12:39:40 PM 41.7050 -73.0128 226° Southwest 424 488 34,000  Level Boston Center
Wed 12:40:40 PM 41.6189 -73.1314 226° Southwest 419 482 34,000  Level Boston Center
Wed 12:42:17 PM 41.5033 -73.2864 225° Southwest 414 476 34,000  Level New York Center
Wed 12:43:15 PM 41.4242 -73.3914 225° Southwest 414 476 34,000  Level New York Center
Wed 12:44:17 PM 41.3467 -73.4989 226° Southwest 414 476 34,000  Level New York Center
Wed 12:45:15 PM 41.2672 -73.6033 225° Southwest 414 476 34,000  Level New York Center
Wed 12:46:16 PM 41.1997 -73.7217 233° Southwest 414 476 34,000  Level New York Center
Wed 12:47:16 PM 41.1300 -73.8397 232° Southwest 409 471 34,000  Level New York Center
Wed 12:48:15 PM 41.0606 -73.9522 231° Southwest 409 471 34,000 -1,160 Level New York Center
Wed 12:49:15 PM 40.9925 -74.0700 233° Southwest 409 471 31,700 -2,100 Descending New York Center
Wed 12:50:15 PM 40.9247 -74.1847 232° Southwest 409 471 29,800 -1,426 Descending New York Center
Wed 12:51:17 PM 40.8461 -74.3069 230° Southwest 421 484 28,800 -900 Descending New York Center
Wed 12:52:15 PM 40.7717 -74.4292 231° Southwest 426 490 28,000 -712 Descending New York Center
Wed 12:53:15 PM 40.6969 -74.5539 232° Southwest 431 496 27,400 -787 Descending New York Center
Wed 12:54:17 PM 40.6147 -74.6450 220° Southwest 426 490 26,400 -1,100 Descending New York Center
Wed 12:55:15 PM 40.5147 -74.7075 205° Southwest 397 457 25,200 -1,169 Descending New York Center
Wed 12:56:15 PM 40.4389 -74.7931 221° Southwest 389 448 24,100 -1,082 Descending New York Center
Wed 12:57:17 PM 40.3786 -74.9067 235° Southwest 377 434 23,000 -1,033 Descending New York Center
Wed 12:58:17 PM 40.3228 -75.0150 236° Southwest 377 434 22,000 -966 Descending New York Center
Wed 12:59:15 PM 40.2667 -75.1231 236° Southwest 370 426 21,100 -966 Descending New York Center
Wed 01:00:15 PM 40.2106 -75.2311 236° Southwest 364 419 20,100 -1,300 Descending New York Center
Wed 01:01:15 PM 40.1478 -75.3439 234° Southwest 364 419 18,500 -1,041 Descending New York Center
Wed 01:02:16 PM 40.0925 -75.4297 230° Southwest 356 410 18,000 -246 Descending New York Center
Wed 01:03:17 PM 40.0217 -75.5281 227° Southwest 344 396 18,000 -202 Level New York Center
Wed 01:04:15 PM 39.9642 -75.6081 227° Southwest 344 396 17,600 -712 Descending New York Center
Wed 01:05:15 PM 39.8997 -75.7092 230° Southwest 338 389 16,600 -738 Descending New York Center
Wed 01:06:17 PM 39.8542 -75.7953 235° Southwest 333 383 16,100 -590 Descending New York Center
Wed 01:07:17 PM 39.8000 -75.8967 235° Southwest 327 376 15,400 -1,250 Descending New York Center
Wed 01:09:29 PM 39.7000 -76.1000 237° Southwest 283 326 12,100 -1,290 Descending Potomac TRACON
Wed 01:10:23 PM 39.6500 -76.1667 226° Southwest 267 307 11,400 -1,211 Descending Potomac TRACON
Wed 01:11:23 PM 39.6167 -76.2500 243° Southwest 259 298 9,800 -1,650 Descending Potomac TRACON
Wed 01:12:23 PM 39.5667 -76.3333 232° Southwest 256 295 8,100 -1,550 Descending Potomac TRACON
Wed 01:13:23 PM 39.5333 -76.4000 237° Southwest 250 288 6,700 -1,421 Descending Potomac TRACON
Wed 01:14:17 PM 39.5167 -76.4667 252° West 246 283 5,400 -583 Descending Potomac TRACON
Wed 01:16:18 PM 39.4500 -76.6167 240° Southwest 240 276 5,000 -398 Descending Potomac TRACON
Wed 01:17:18 PM 39.4167 -76.7000 243° Southwest 241 277 4,200 -500 Descending Potomac TRACON
Wed 01:18:18 PM 39.3833 -76.7833 243° Southwest 247 284 4,000 -95 Descending Potomac TRACON
Wed 01:19:24 PM 39.3500 -76.8500 237° Southwest 208 239 4,000 -350 Level Potomac TRACON
Wed 01:20:18 PM 39.3000 -76.8833 207° Southwest 209 241 3,300 -684 Descending Potomac TRACON
Wed 01:21:18 PM 39.2500 -76.8667 166° South 214 246 2,700 -645 Descending Potomac TRACON
Wed 01:22:19 PM 39.2000 -76.8333 153° Southeast 187 215 2,000 -626 Descending Potomac TRACON
Wed 01:23:13 PM 39.1833 -76.7833 113° Southeast 179 206 1,500 -579 Descending Potomac TRACON
Wed 01:24:13 PM 39.1833 -76.7333 90° East 135 155 900 -600 Descending Potomac TRACON
Wed 01:26:00 PM 39.1667 -76.6667 270° West  Level FlightAware Approximate
Wed 01:33:00 PM 39.1754 -76.6683 270° West  Level Estimated
Wed 01:34:00 PM 39.1754 -76.6683 270° West  Level Estimated
Wed 01:35:00 PM 39.1754 -76.6683 270° West  Level Estimated

Login

Don't have an account? Register now (free) for customized features, flight alerts, and more!